Huntington, MA (01050)

10:01 AM EDT on September 20, 2014 (GMT -0400)
chester hill | Change Station
CLOSE
Current Station
Personal Weather Station
Location: Chester, MA
Elevation: 1450 ft
Nearby Weather Stations

Elev 1450 ft 42.31 °N, 72.96 °W | Updated 2 seconds ago

Overcast
Overcast
53.1 °F
Feels Like 53.1 °F
N
0.0
Wind Variable Wind from SE
Gusts 0.0 mph

Today
High -- | Low -- °F
--% Chance of Precip.
Yesterday
High -- | Low -- °F
Precip. -- in
6:36 AM 6:52 PM
Waning Crescent, 12% visible
Pressure 30.31 in
Visibility 10.0 miles
Clouds Mostly Cloudy 2500 ft
Mostly Cloudy 3100 ft
Overcast 4700 ft
Dew Point 51 °F
Humidity 94%
Rainfall 0.00 in
Snow Depth Not available.
UV 1 out of 12
Pollen 2.50 out of 12
PM2.5 Moderate
Flu Activity Not available.
METAR KBAF 201353Z 17006KT 10SM BKN025 BKN031 OVC047 13/08 A3030 RMK AO2 SLP264 T01280083

More Conditions Fewer Conditions

Pressure 30.31 in
Visibility 10.0 miles
Clouds Mostly Cloudy 2500 ft
Mostly Cloudy 3100 ft
Overcast 4700 ft
Dew Point 51 °F
Humidity 94%
Rainfall 0.00 in
Snow Depth Not available.
UV 1 out of 12
Pollen 2.50 out of 12
PM2.5 Moderate
Flu Activity Not available.
METAR KBAF 201353Z 17006KT 10SM BKN025 BKN031 OVC047 13/08 A3030 RMK AO2 SLP264 T01280083

More Conditions Fewer Conditions

10-Day Weather Forecast

Almanac

Astronomy

Sep. 20, 2014 Rise Set
Actual Time 6:36 AM EDT 6:52 PM EDT
Civil Twilight 6:08 AM EDT 7:20 PM EDT
Nautical Twilight 5:35 AM EDT 7:53 PM EDT
Astronomical Twilight 5:01 AM EDT 8:26 PM EDT
Moon 3:10 AM EDT 4:56 PM EDT
Length of Visible Light 13h 11m
Length of Day
12h 15m
Tomorrow will be 2m 50s shorter.
Waning Crescent, 12% of the Moon is Illuminated
Today
Waning Crescent
Sep 24
New
Oct 1
First Quarter
Oct 8
Full
Oct 15
Last Quarter

Today's Extremes

State Highs State Lows

Community

WunderPhotos

Upload Photos

1,754,865 photos uploaded!

Nearby

Air Quality

  Air Quality AQ Index Pollutant
Yesterday Good
PM2.5
Yesterday Good
OZONE
Current Moderate
PM2.5
Saturday Good
PM2.5
Saturday Good
OZONE

Snow Depth

Station Depth Elevation
No new snow has been reported.

Earthquake Activity

City Distance Mag. Time & Date
No recent earthquake activity has been reported nearby.
Minimum magnitude displayed is 2.5.

Coastal Water Temperatures

Place Temperature
No Stations Reporting

Nearby Weather Stations